DLH491 EDDF-KSEA
Flight info
| Callsign | DLH491 |
|---|---|
| Flight time | N/A |
| Altitude | 36000 |
| Route | OBOKA5G/25C OBOKA Z28 DIBIR DCT BUDIP DCT MIMVA DCT GETNO DCT NIBOG DCT PIKIL/M085F370 NATA URTAK/N0502F380 DCT LAKES DCT 58N070W 58N080W 57N090W 56N100W/N0499F400 55N104W 53N110W DCT BINVO DCT YDC DCT JAKSN |
| Aircraft | B789/H-SDE1E2E3FGHIJ2J3J4J5M1RWXY/LB1D1 |
Departure
| Time | 2026-05-06 09:56 |
|---|---|
| Airport | Frankfurt Main Airport (EDDF) |
Arrival
| Time | N/A |
|---|---|
| Airport | Seattle–Tacoma International Airport (KSEA) |
| Time | Latitude | Longitude | Altitude | Speed | Heading |
|---|---|---|---|---|---|
| 2026-05-06 09:13 | 50.03826 | 8.54581 | 361 ft | 0 kts | 160° |
| 2026-05-06 09:44 | 50.03825 | 8.54582 | 351 ft | 0 kts | 160° |
| 2026-05-06 09:45 | 50.03809 | 8.54591 | 359 ft | 4 kts | 160° |
| 2026-05-06 09:45 | 50.03769 | 8.54614 | 355 ft | 7 kts | 155° |
| 2026-05-06 09:45 | 50.03748 | 8.54659 | 354 ft | 4 kts | 101° |
| 2026-05-06 09:45 | 50.03751 | 8.54700 | 360 ft | 4 kts | 74° |
| 2026-05-06 09:46 | 50.03762 | 8.54748 | 355 ft | 6 kts | 70° |
| 2026-05-06 09:46 | 50.03778 | 8.54819 | 354 ft | 8 kts | 70° |
| 2026-05-06 09:46 | 50.03799 | 8.54905 | 361 ft | 9 kts | 69° |
| 2026-05-06 09:46 | 50.03824 | 8.55009 | 361 ft | 11 kts | 69° |
| 2026-05-06 09:47 | 50.03849 | 8.55115 | 353 ft | 10 kts | 69° |
| 2026-05-06 09:47 | 50.03874 | 8.55218 | 358 ft | 10 kts | 69° |
| 2026-05-06 09:47 | 50.03898 | 8.55318 | 358 ft | 10 kts | 69° |
| 2026-05-06 09:47 | 50.03922 | 8.55418 | 353 ft | 10 kts | 70° |
| 2026-05-06 09:48 | 50.03947 | 8.55526 | 352 ft | 11 kts | 69° |
| 2026-05-06 09:48 | 50.03973 | 8.55635 | 358 ft | 11 kts | 69° |
| 2026-05-06 09:48 | 50.04000 | 8.55745 | 359 ft | 11 kts | 69° |
| 2026-05-06 09:48 | 50.04028 | 8.55863 | 359 ft | 12 kts | 69° |
| 2026-05-06 09:49 | 50.04057 | 8.55983 | 357 ft | 12 kts | 69° |
| 2026-05-06 09:49 | 50.04086 | 8.56104 | 359 ft | 12 kts | 69° |
| 2026-05-06 09:49 | 50.04114 | 8.56223 | 357 ft | 12 kts | 69° |
| 2026-05-06 09:49 | 50.04142 | 8.56339 | 359 ft | 11 kts | 69° |
| 2026-05-06 09:50 | 50.04169 | 8.56451 | 361 ft | 11 kts | 69° |
| 2026-05-06 09:50 | 50.04196 | 8.56562 | 352 ft | 11 kts | 69° |
| 2026-05-06 09:50 | 50.04224 | 8.56682 | 358 ft | 12 kts | 69° |
| 2026-05-06 09:50 | 50.04253 | 8.56801 | 355 ft | 12 kts | 69° |
| 2026-05-06 09:51 | 50.04283 | 8.56927 | 355 ft | 13 kts | 69° |
| 2026-05-06 09:51 | 50.04314 | 8.57053 | 359 ft | 12 kts | 69° |
| 2026-05-06 09:51 | 50.04343 | 8.57176 | 357 ft | 12 kts | 69° |
| 2026-05-06 09:51 | 50.04371 | 8.57295 | 359 ft | 12 kts | 69° |
| 2026-05-06 09:52 | 50.04399 | 8.57410 | 358 ft | 11 kts | 69° |
| 2026-05-06 09:52 | 50.04425 | 8.57519 | 352 ft | 11 kts | 69° |
| 2026-05-06 09:52 | 50.04451 | 8.57626 | 356 ft | 10 kts | 69° |
| 2026-05-06 09:52 | 50.04475 | 8.57732 | 359 ft | 11 kts | 70° |
| 2026-05-06 09:53 | 50.04508 | 8.57871 | 359 ft | 16 kts | 70° |
| 2026-05-06 09:53 | 50.04546 | 8.58035 | 358 ft | 16 kts | 70° |
| 2026-05-06 09:53 | 50.04584 | 8.58197 | 356 ft | 16 kts | 70° |
| 2026-05-06 09:53 | 50.04621 | 8.58352 | 355 ft | 15 kts | 70° |
| 2026-05-06 09:54 | 50.04655 | 8.58504 | 352 ft | 14 kts | 81° |
| 2026-05-06 09:54 | 50.04616 | 8.58577 | 357 ft | 8 kts | 160° |
| 2026-05-06 09:54 | 50.04567 | 8.58605 | 359 ft | 7 kts | 160° |
| 2026-05-06 09:54 | 50.04519 | 8.58625 | 358 ft | 6 kts | 180° |
| 2026-05-06 09:55 | 50.04494 | 8.58597 | 358 ft | 6 kts | 230° |
| 2026-05-06 09:55 | 50.04471 | 8.58515 | 359 ft | 12 kts | 249° |
| 2026-05-06 09:55 | 50.04396 | 8.58205 | 359 ft | 59 kts | 250° |
| 2026-05-06 09:55 | 50.04181 | 8.57299 | 359 ft | 119 kts | 249° |
| 2026-05-06 09:56 | 50.03829 | 8.55831 | 361 ft | 169 kts | 249° |
| 2026-05-06 09:56 | 50.03420 | 8.54053 | 943 ft | 180 kts | 249° |
| 2026-05-06 09:56 | 50.02946 | 8.52228 | 1829 ft | 184 kts | 246° |
| 2026-05-06 09:56 | 50.02635 | 8.50243 | 2316 ft | 206 kts | 269° |
| 2026-05-06 09:57 | 50.02865 | 8.47922 | 2823 ft | 221 kts | 275° |
| 2026-05-06 09:57 | 50.03018 | 8.45579 | 3742 ft | 218 kts | 273° |
| 2026-05-06 09:57 | 50.02920 | 8.43190 | 4302 ft | 231 kts | 257° |
| 2026-05-06 09:57 | 50.02584 | 8.40658 | 4744 ft | 251 kts | 257° |
| 2026-05-06 09:58 | 50.02251 | 8.37944 | 5567 ft | 256 kts | 258° |
| 2026-05-06 09:58 | 50.01929 | 8.35199 | 6432 ft | 260 kts | 258° |
| 2026-05-06 09:58 | 50.01601 | 8.32434 | 7309 ft | 262 kts | 258° |
| 2026-05-06 09:58 | 50.01292 | 8.29620 | 8126 ft | 267 kts | 264° |
| 2026-05-06 09:59 | 50.01599 | 8.26742 | 8953 ft | 275 kts | 287° |
| 2026-05-06 09:59 | 50.02338 | 8.24000 | 9732 ft | 281 kts | 291° |
| 2026-05-06 09:59 | 50.03189 | 8.21186 | 10173 ft | 300 kts | 292° |
| 2026-05-06 09:59 | 50.04105 | 8.18122 | 10280 ft | 327 kts | 291° |
| 2026-05-06 10:00 | 50.05077 | 8.14762 | 10464 ft | 351 kts | 291° |
| 2026-05-06 10:00 | 50.06208 | 8.11371 | 11280 ft | 356 kts | 304° |
| 2026-05-06 10:00 | 50.07806 | 8.08384 | 11951 ft | 362 kts | 306° |
| 2026-05-06 10:00 | 50.09382 | 8.05288 | 12706 ft | 366 kts | 305° |
| 2026-05-06 10:01 | 50.10965 | 8.02153 | 13439 ft | 371 kts | 306° |
| 2026-05-06 10:01 | 50.12590 | 7.99002 | 14102 ft | 375 kts | 306° |
| 2026-05-06 10:01 | 50.14217 | 7.95861 | 14747 ft | 379 kts | 306° |
| 2026-05-06 10:01 | 50.15872 | 7.92635 | 15422 ft | 383 kts | 306° |
| 2026-05-06 10:02 | 50.17537 | 7.89373 | 16087 ft | 386 kts | 306° |
| 2026-05-06 10:02 | 50.19222 | 7.86077 | 16720 ft | 390 kts | 306° |
| 2026-05-06 10:02 | 50.20923 | 7.82755 | 17355 ft | 394 kts | 306° |
| 2026-05-06 10:02 | 50.22639 | 7.79395 | 17953 ft | 398 kts | 306° |
| 2026-05-06 10:03 | 50.24389 | 7.76028 | 18482 ft | 402 kts | 310° |
| 2026-05-06 10:03 | 50.26573 | 7.73242 | 19022 ft | 410 kts | 326° |